sensor_id;sensor_type;location;lat;lon;timestamp;P1;durP1;ratioP1;P2;durP2;ratioP2
42538;SDS011;28173;51.376;6.760;2023-02-15T00:02:01;27.58;;;19.02;;
42538;SDS011;28173;51.376;6.760;2023-02-15T00:04:28;29.98;;;20.45;;
42538;SDS011;28173;51.376;6.760;2023-02-15T00:07:15;30.20;;;20.70;;
42538;SDS011;28173;51.376;6.760;2023-02-15T00:09:42;31.13;;;20.73;;
42538;SDS011;28173;51.376;6.760;2023-02-15T00:12:09;30.55;;;20.30;;
42538;SDS011;28173;51.376;6.760;2023-02-15T00:14:39;25.50;;;18.55;;
42538;SDS011;28173;51.376;6.760;2023-02-15T00:17:05;29.67;;;19.00;;
42538;SDS011;28173;51.376;6.760;2023-02-15T00:19:32;32.65;;;20.60;;
42538;SDS011;28173;51.376;6.760;2023-02-15T00:22:01;29.52;;;19.50;;
42538;SDS011;28173;51.376;6.760;2023-02-15T00:24:30;29.17;;;20.13;;
42538;SDS011;28173;51.376;6.760;2023-02-15T00:26:57;28.60;;;20.00;;
42538;SDS011;28173;51.376;6.760;2023-02-15T00:29:23;32.75;;;20.65;;
42538;SDS011;28173;51.376;6.760;2023-02-15T00:31:50;31.23;;;21.08;;
42538;SDS011;28173;51.376;6.760;2023-02-15T00:34:22;28.88;;;19.65;;
42538;SDS011;28173;51.376;6.760;2023-02-15T00:36:49;31.23;;;20.77;;
42538;SDS011;28173;51.376;6.760;2023-02-15T00:39:16;32.35;;;19.65;;
42538;SDS011;28173;51.376;6.760;2023-02-15T00:41:42;31.67;;;20.90;;
42538;SDS011;28173;51.376;6.760;2023-02-15T00:44:10;30.80;;;20.65;;
42538;SDS011;28173;51.376;6.760;2023-02-15T00:46:37;28.67;;;20.73;;
42538;SDS011;28173;51.376;6.760;2023-02-15T00:49:04;32.17;;;21.08;;
42538;SDS011;28173;51.376;6.760;2023-02-15T00:51:31;28.73;;;20.10;;
42538;SDS011;28173;51.376;6.760;2023-02-15T00:53:57;28.05;;;19.55;;
42538;SDS011;28173;51.376;6.760;2023-02-15T00:56:24;30.15;;;20.52;;
42538;SDS011;28173;51.376;6.760;2023-02-15T00:58:51;35.50;;;22.92;;
42538;SDS011;28173;51.376;6.760;2023-02-15T01:01:18;48.63;;;30.27;;
42538;SDS011;28173;51.376;6.760;2023-02-15T01:03:45;43.65;;;28.02;;
42538;SDS011;28173;51.376;6.760;2023-02-15T01:06:13;42.08;;;27.67;;
42538;SDS011;28173;51.376;6.760;2023-02-15T01:08:41;55.28;;;34.92;;
42538;SDS011;28173;51.376;6.760;2023-02-15T01:11:09;41.55;;;26.30;;
42538;SDS011;28173;51.376;6.760;2023-02-15T01:13:36;44.92;;;28.83;;
42538;SDS011;28173;51.376;6.760;2023-02-15T01:16:04;42.13;;;24.95;;
42538;SDS011;28173;51.376;6.760;2023-02-15T01:18:33;41.35;;;26.95;;
42538;SDS011;28173;51.376;6.760;2023-02-15T01:21:00;54.30;;;34.80;;
42538;SDS011;28173;51.376;6.760;2023-02-15T01:23:34;47.95;;;31.67;;
42538;SDS011;28173;51.376;6.760;2023-02-15T01:26:01;38.85;;;25.27;;
42538;SDS011;28173;51.376;6.760;2023-02-15T01:28:29;34.17;;;22.95;;
42538;SDS011;28173;51.376;6.760;2023-02-15T01:30:55;36.65;;;23.13;;
42538;SDS011;28173;51.376;6.760;2023-02-15T01:33:22;35.25;;;22.85;;
42538;SDS011;28173;51.376;6.760;2023-02-15T01:35:48;35.58;;;22.98;;
42538;SDS011;28173;51.376;6.760;2023-02-15T01:38:15;41.10;;;23.70;;
42538;SDS011;28173;51.376;6.760;2023-02-15T01:40:41;37.17;;;24.42;;
42538;SDS011;28173;51.376;6.760;2023-02-15T01:43:11;35.75;;;23.13;;
42538;SDS011;28173;51.376;6.760;2023-02-15T01:45:38;38.75;;;25.15;;
42538;SDS011;28173;51.376;6.760;2023-02-15T01:48:08;36.05;;;24.30;;
42538;SDS011;28173;51.376;6.760;2023-02-15T01:50:37;33.50;;;23.23;;
42538;SDS011;28173;51.376;6.760;2023-02-15T01:55:40;36.90;;;24.05;;
42538;SDS011;28173;51.376;6.760;2023-02-15T01:58:08;36.58;;;23.58;;
42538;SDS011;28173;51.376;6.760;2023-02-15T02:00:35;33.40;;;22.17;;
42538;SDS011;28173;51.376;6.760;2023-02-15T02:03:02;35.33;;;21.83;;
42538;SDS011;28173;51.376;6.760;2023-02-15T02:05:29;36.40;;;23.30;;
42538;SDS011;28173;51.376;6.760;2023-02-15T02:07:57;33.88;;;22.63;;
42538;SDS011;28173;51.376;6.760;2023-02-15T02:10:24;39.35;;;24.67;;
42538;SDS011;28173;51.376;6.760;2023-02-15T02:12:52;35.75;;;23.70;;
42538;SDS011;28173;51.376;6.760;2023-02-15T02:15:24;36.83;;;23.48;;
42538;SDS011;28173;51.376;6.760;2023-02-15T02:30:22;33.63;;;23.13;;
42538;SDS011;28173;51.376;6.760;2023-02-15T02:32:58;36.53;;;23.05;;
42538;SDS011;28173;51.376;6.760;2023-02-15T02:38:26;35.95;;;23.45;;
42538;SDS011;28173;51.376;6.760;2023-02-15T02:40:56;35.15;;;23.00;;
42538;SDS011;28173;51.376;6.760;2023-02-15T02:45:57;39.45;;;24.13;;
42538;SDS011;28173;51.376;6.760;2023-02-15T02:48:25;34.00;;;22.65;;
42538;SDS011;28173;51.376;6.760;2023-02-15T02:50:53;34.58;;;22.95;;
42538;SDS011;28173;51.376;6.760;2023-02-15T02:53:20;37.42;;;22.92;;
42538;SDS011;28173;51.376;6.760;2023-02-15T02:58:32;35.70;;;23.52;;
42538;SDS011;28173;51.376;6.760;2023-02-15T03:01:05;36.08;;;23.73;;
42538;SDS011;28173;51.376;6.760;2023-02-15T03:03:38;35.00;;;22.90;;
42538;SDS011;28173;51.376;6.760;2023-02-15T03:06:11;36.60;;;23.10;;
42538;SDS011;28173;51.376;6.760;2023-02-15T03:08:42;34.38;;;22.42;;
42538;SDS011;28173;51.376;6.760;2023-02-15T03:11:09;33.80;;;22.80;;
42538;SDS011;28173;51.376;6.760;2023-02-15T03:13:37;35.75;;;22.55;;
42538;SDS011;28173;51.376;6.760;2023-02-15T03:16:05;35.47;;;23.60;;
42538;SDS011;28173;51.376;6.760;2023-02-15T03:21:34;54.22;;;32.30;;
42538;SDS011;28173;51.376;6.760;2023-02-15T03:24:13;47.28;;;30.50;;
42538;SDS011;28173;51.376;6.760;2023-02-15T03:26:42;89.75;;;54.90;;
42538;SDS011;28173;51.376;6.760;2023-02-15T03:29:09;41.15;;;26.73;;
42538;SDS011;28173;51.376;6.760;2023-02-15T03:31:37;41.55;;;25.38;;
42538;SDS011;28173;51.376;6.760;2023-02-15T03:34:06;36.35;;;23.30;;
42538;SDS011;28173;51.376;6.760;2023-02-15T03:36:43;36.60;;;23.13;;
42538;SDS011;28173;51.376;6.760;2023-02-15T03:39:12;36.35;;;23.63;;
42538;SDS011;28173;51.376;6.760;2023-02-15T03:41:42;35.83;;;24.10;;
42538;SDS011;28173;51.376;6.760;2023-02-15T03:44:25;35.88;;;22.30;;
42538;SDS011;28173;51.376;6.760;2023-02-15T03:47:09;32.22;;;21.25;;
42538;SDS011;28173;51.376;6.760;2023-02-15T03:52:03;37.65;;;23.08;;
42538;SDS011;28173;51.376;6.760;2023-02-15T03:54:31;35.85;;;23.17;;
42538;SDS011;28173;51.376;6.760;2023-02-15T03:57:16;34.22;;;21.90;;
42538;SDS011;28173;51.376;6.760;2023-02-15T04:00:12;34.75;;;22.83;;
42538;SDS011;28173;51.376;6.760;2023-02-15T04:05:24;35.42;;;23.30;;
42538;SDS011;28173;51.376;6.760;2023-02-15T04:07:51;34.78;;;22.15;;
42538;SDS011;28173;51.376;6.760;2023-02-15T04:10:17;35.50;;;22.80;;
42538;SDS011;28173;51.376;6.760;2023-02-15T04:13:02;35.05;;;23.45;;
42538;SDS011;28173;51.376;6.760;2023-02-15T04:15:29;34.75;;;22.08;;
42538;SDS011;28173;51.376;6.760;2023-02-15T04:18:14;38.88;;;23.58;;
42538;SDS011;28173;51.376;6.760;2023-02-15T04:20:43;34.88;;;23.10;;
42538;SDS011;28173;51.376;6.760;2023-02-15T04:23:28;34.35;;;22.98;;
42538;SDS011;28173;51.376;6.760;2023-02-15T04:26:13;36.65;;;23.48;;
42538;SDS011;28173;51.376;6.760;2023-02-15T04:28:39;40.85;;;23.35;;
42538;SDS011;28173;51.376;6.760;2023-02-15T04:31:06;37.05;;;23.00;;
42538;SDS011;28173;51.376;6.760;2023-02-15T04:33:33;37.60;;;23.67;;
42538;SDS011;28173;51.376;6.760;2023-02-15T04:36:00;37.72;;;24.38;;
42538;SDS011;28173;51.376;6.760;2023-02-15T04:38:27;37.10;;;22.75;;
42538;SDS011;28173;51.376;6.760;2023-02-15T04:40:53;34.75;;;22.73;;
42538;SDS011;28173;51.376;6.760;2023-02-15T04:43:20;35.15;;;22.70;;
42538;SDS011;28173;51.376;6.760;2023-02-15T04:45:49;36.85;;;23.77;;
42538;SDS011;28173;51.376;6.760;2023-02-15T04:48:17;38.78;;;24.17;;
42538;SDS011;28173;51.376;6.760;2023-02-15T04:50:44;36.05;;;24.23;;
42538;SDS011;28173;51.376;6.760;2023-02-15T04:53:10;35.95;;;23.77;;
42538;SDS011;28173;51.376;6.760;2023-02-15T04:55:37;37.90;;;24.33;;
42538;SDS011;28173;51.376;6.760;2023-02-15T04:58:03;38.90;;;23.98;;
42538;SDS011;28173;51.376;6.760;2023-02-15T05:00:30;35.13;;;23.02;;
42538;SDS011;28173;51.376;6.760;2023-02-15T05:02:56;38.92;;;24.00;;
42538;SDS011;28173;51.376;6.760;2023-02-15T05:05:23;32.83;;;22.15;;
42538;SDS011;28173;51.376;6.760;2023-02-15T05:07:50;35.63;;;23.13;;
42538;SDS011;28173;51.376;6.760;2023-02-15T05:10:16;36.78;;;23.45;;
42538;SDS011;28173;51.376;6.760;2023-02-15T05:12:43;33.58;;;22.13;;
42538;SDS011;28173;51.376;6.760;2023-02-15T05:15:10;36.63;;;23.48;;
42538;SDS011;28173;51.376;6.760;2023-02-15T05:17:37;37.40;;;23.58;;
42538;SDS011;28173;51.376;6.760;2023-02-15T05:20:03;36.70;;;23.73;;
42538;SDS011;28173;51.376;6.760;2023-02-15T05:22:30;39.13;;;23.33;;
42538;SDS011;28173;51.376;6.760;2023-02-15T05:24:57;35.35;;;23.73;;
42538;SDS011;28173;51.376;6.760;2023-02-15T05:27:42;40.38;;;24.77;;
42538;SDS011;28173;51.376;6.760;2023-02-15T05:30:30;35.65;;;23.38;;
42538;SDS011;28173;51.376;6.760;2023-02-15T05:32:57;37.40;;;23.65;;
42538;SDS011;28173;51.376;6.760;2023-02-15T05:35:23;37.85;;;23.45;;
42538;SDS011;28173;51.376;6.760;2023-02-15T05:37:50;37.25;;;23.83;;
42538;SDS011;28173;51.376;6.760;2023-02-15T05:40:16;38.00;;;23.38;;
42538;SDS011;28173;51.376;6.760;2023-02-15T05:42:43;37.05;;;23.52;;
42538;SDS011;28173;51.376;6.760;2023-02-15T05:45:09;39.05;;;23.70;;
42538;SDS011;28173;51.376;6.760;2023-02-15T05:47:36;39.38;;;23.73;;
42538;SDS011;28173;51.376;6.760;2023-02-15T05:50:02;41.08;;;24.50;;
42538;SDS011;28173;51.376;6.760;2023-02-15T05:52:29;38.88;;;23.92;;
42538;SDS011;28173;51.376;6.760;2023-02-15T05:54:56;36.70;;;23.70;;
42538;SDS011;28173;51.376;6.760;2023-02-15T05:57:22;41.75;;;24.33;;
42538;SDS011;28173;51.376;6.760;2023-02-15T05:59:49;41.92;;;24.83;;
42538;SDS011;28173;51.376;6.760;2023-02-15T06:02:15;43.17;;;24.27;;
42538;SDS011;28173;51.376;6.760;2023-02-15T06:04:42;39.28;;;24.17;;
42538;SDS011;28173;51.376;6.760;2023-02-15T06:07:08;36.58;;;22.77;;
42538;SDS011;28173;51.376;6.760;2023-02-15T06:09:34;38.75;;;23.98;;
42538;SDS011;28173;51.376;6.760;2023-02-15T06:12:01;38.78;;;24.13;;
42538;SDS011;28173;51.376;6.760;2023-02-15T06:14:27;36.92;;;23.50;;
42538;SDS011;28173;51.376;6.760;2023-02-15T06:16:54;41.65;;;24.33;;
42538;SDS011;28173;51.376;6.760;2023-02-15T06:19:20;36.38;;;22.83;;
42538;SDS011;28173;51.376;6.760;2023-02-15T06:21:49;40.28;;;23.13;;
42538;SDS011;28173;51.376;6.760;2023-02-15T06:24:15;38.35;;;23.00;;
42538;SDS011;28173;51.376;6.760;2023-02-15T06:26:42;41.17;;;23.73;;
42538;SDS011;28173;51.376;6.760;2023-02-15T06:29:08;37.50;;;22.98;;
42538;SDS011;28173;51.376;6.760;2023-02-15T06:31:35;36.47;;;22.05;;
42538;SDS011;28173;51.376;6.760;2023-02-15T06:34:01;36.88;;;24.10;;
42538;SDS011;28173;51.376;6.760;2023-02-15T06:36:28;37.70;;;23.38;;
42538;SDS011;28173;51.376;6.760;2023-02-15T06:38:55;37.80;;;23.45;;
42538;SDS011;28173;51.376;6.760;2023-02-15T06:41:21;35.45;;;22.88;;
42538;SDS011;28173;51.376;6.760;2023-02-15T06:43:48;35.58;;;22.85;;
42538;SDS011;28173;51.376;6.760;2023-02-15T06:46:15;37.67;;;24.02;;
42538;SDS011;28173;51.376;6.760;2023-02-15T06:48:41;46.53;;;23.13;;
42538;SDS011;28173;51.376;6.760;2023-02-15T06:51:08;36.90;;;23.52;;
42538;SDS011;28173;51.376;6.760;2023-02-15T06:53:34;33.63;;;22.42;;
42538;SDS011;28173;51.376;6.760;2023-02-15T06:56:02;38.97;;;22.83;;
42538;SDS011;28173;51.376;6.760;2023-02-15T06:58:33;39.53;;;22.88;;
42538;SDS011;28173;51.376;6.760;2023-02-15T07:01:00;36.97;;;22.35;;
42538;SDS011;28173;51.376;6.760;2023-02-15T07:03:26;38.28;;;22.85;;
42538;SDS011;28173;51.376;6.760;2023-02-15T07:05:56;35.25;;;23.10;;
42538;SDS011;28173;51.376;6.760;2023-02-15T07:08:23;35.70;;;23.00;;
42538;SDS011;28173;51.376;6.760;2023-02-15T07:10:50;39.80;;;21.42;;
42538;SDS011;28173;51.376;6.760;2023-02-15T07:13:17;35.90;;;22.48;;
42538;SDS011;28173;51.376;6.760;2023-02-15T07:15:44;32.42;;;21.15;;
42538;SDS011;28173;51.376;6.760;2023-02-15T07:18:11;37.42;;;22.77;;
42538;SDS011;28173;51.376;6.760;2023-02-15T07:20:37;35.65;;;21.90;;
42538;SDS011;28173;51.376;6.760;2023-02-15T07:23:04;36.30;;;21.75;;
42538;SDS011;28173;51.376;6.760;2023-02-15T07:25:31;33.40;;;20.90;;
42538;SDS011;28173;51.376;6.760;2023-02-15T07:27:58;36.65;;;21.70;;
42538;SDS011;28173;51.376;6.760;2023-02-15T07:30:24;36.33;;;21.48;;
42538;SDS011;28173;51.376;6.760;2023-02-15T07:32:54;36.58;;;23.48;;
42538;SDS011;28173;51.376;6.760;2023-02-15T07:35:45;33.72;;;21.17;;
42538;SDS011;28173;51.376;6.760;2023-02-15T07:38:12;34.75;;;21.88;;
42538;SDS011;28173;51.376;6.760;2023-02-15T07:40:38;36.58;;;21.15;;
42538;SDS011;28173;51.376;6.760;2023-02-15T07:43:05;33.85;;;21.00;;
42538;SDS011;28173;51.376;6.760;2023-02-15T07:45:31;33.60;;;21.17;;
42538;SDS011;28173;51.376;6.760;2023-02-15T07:47:59;35.53;;;21.13;;
42538;SDS011;28173;51.376;6.760;2023-02-15T07:50:26;34.65;;;22.30;;
42538;SDS011;28173;51.376;6.760;2023-02-15T07:52:52;33.72;;;20.63;;
42538;SDS011;28173;51.376;6.760;2023-02-15T07:55:19;33.92;;;21.02;;
42538;SDS011;28173;51.376;6.760;2023-02-15T07:57:46;35.30;;;21.92;;
42538;SDS011;28173;51.376;6.760;2023-02-15T08:00:13;34.33;;;21.15;;
42538;SDS011;28173;51.376;6.760;2023-02-15T08:02:40;36.85;;;22.63;;
42538;SDS011;28173;51.376;6.760;2023-02-15T08:05:07;32.92;;;21.50;;
42538;SDS011;28173;51.376;6.760;2023-02-15T08:07:33;33.55;;;20.98;;
42538;SDS011;28173;51.376;6.760;2023-02-15T08:10:00;35.90;;;21.83;;
42538;SDS011;28173;51.376;6.760;2023-02-15T08:12:26;31.38;;;20.73;;
42538;SDS011;28173;51.376;6.760;2023-02-15T08:14:53;37.58;;;21.70;;
42538;SDS011;28173;51.376;6.760;2023-02-15T08:17:19;34.47;;;19.95;;
42538;SDS011;28173;51.376;6.760;2023-02-15T08:19:46;30.90;;;19.92;;
42538;SDS011;28173;51.376;6.760;2023-02-15T08:22:13;31.35;;;21.08;;
42538;SDS011;28173;51.376;6.760;2023-02-15T08:24:40;31.00;;;20.50;;
42538;SDS011;28173;51.376;6.760;2023-02-15T08:27:08;32.90;;;19.70;;
42538;SDS011;28173;51.376;6.760;2023-02-15T08:29:35;31.23;;;21.25;;
42538;SDS011;28173;51.376;6.760;2023-02-15T08:32:04;31.00;;;19.75;;
42538;SDS011;28173;51.376;6.760;2023-02-15T08:34:32;31.50;;;20.60;;
42538;SDS011;28173;51.376;6.760;2023-02-15T08:36:59;30.35;;;20.55;;
42538;SDS011;28173;51.376;6.760;2023-02-15T08:39:26;29.85;;;20.17;;
42538;SDS011;28173;51.376;6.760;2023-02-15T08:41:52;32.55;;;20.27;;
42538;SDS011;28173;51.376;6.760;2023-02-15T08:44:19;29.65;;;19.48;;
42538;SDS011;28173;51.376;6.760;2023-02-15T08:46:46;28.23;;;18.60;;
42538;SDS011;28173;51.376;6.760;2023-02-15T08:49:18;29.58;;;19.75;;
42538;SDS011;28173;51.376;6.760;2023-02-15T08:51:44;33.80;;;19.30;;
42538;SDS011;28173;51.376;6.760;2023-02-15T08:54:14;32.15;;;19.52;;
42538;SDS011;28173;51.376;6.760;2023-02-15T08:56:42;28.17;;;19.30;;
42538;SDS011;28173;51.376;6.760;2023-02-15T08:59:16;32.15;;;19.50;;
42538;SDS011;28173;51.376;6.760;2023-02-15T09:01:43;27.13;;;17.98;;
42538;SDS011;28173;51.376;6.760;2023-02-15T09:04:10;26.20;;;17.95;;
42538;SDS011;28173;51.376;6.760;2023-02-15T09:06:37;29.58;;;19.15;;
42538;SDS011;28173;51.376;6.760;2023-02-15T09:09:04;27.42;;;18.55;;
42538;SDS011;28173;51.376;6.760;2023-02-15T09:11:33;27.60;;;17.77;;
42538;SDS011;28173;51.376;6.760;2023-02-15T09:14:01;29.42;;;19.33;;
42538;SDS011;28173;51.376;6.760;2023-02-15T09:16:29;29.77;;;18.23;;
42538;SDS011;28173;51.376;6.760;2023-02-15T09:18:56;27.55;;;17.55;;
42538;SDS011;28173;51.376;6.760;2023-02-15T09:21:24;27.73;;;17.80;;
42538;SDS011;28173;51.376;6.760;2023-02-15T09:23:52;26.50;;;17.67;;
42538;SDS011;28173;51.376;6.760;2023-02-15T09:26:21;30.17;;;18.88;;
42538;SDS011;28173;51.376;6.760;2023-02-15T09:28:51;28.98;;;17.92;;
42538;SDS011;28173;51.376;6.760;2023-02-15T09:31:19;28.08;;;17.80;;
42538;SDS011;28173;51.376;6.760;2023-02-15T09:33:46;23.90;;;16.92;;
42538;SDS011;28173;51.376;6.760;2023-02-15T09:36:23;28.60;;;17.90;;
42538;SDS011;28173;51.376;6.760;2023-02-15T09:38:57;27.05;;;17.42;;
42538;SDS011;28173;51.376;6.760;2023-02-15T09:43:55;32.63;;;16.77;;
42538;SDS011;28173;51.376;6.760;2023-02-15T09:51:54;26.52;;;17.63;;
42538;SDS011;28173;51.376;6.760;2023-02-15T09:54:29;30.27;;;17.58;;
42538;SDS011;28173;51.376;6.760;2023-02-15T09:57:00;26.58;;;16.90;;
42538;SDS011;28173;51.376;6.760;2023-02-15T09:59:41;29.10;;;16.58;;
42538;SDS011;28173;51.376;6.760;2023-02-15T10:17:59;29.50;;;16.15;;
42538;SDS011;28173;51.376;6.760;2023-02-15T10:20:43;22.15;;;16.00;;
42538;SDS011;28173;51.376;6.760;2023-02-15T10:24:17;23.70;;;15.95;;
42538;SDS011;28173;51.376;6.760;2023-02-15T10:28:56;24.45;;;16.77;;
42538;SDS011;28173;51.376;6.760;2023-02-15T10:31:25;27.10;;;15.30;;
42538;SDS011;28173;51.376;6.760;2023-02-15T10:33:56;24.27;;;15.82;;
42538;SDS011;28173;51.376;6.760;2023-02-15T10:39:28;26.00;;;16.30;;
42538;SDS011;28173;51.376;6.760;2023-02-15T11:04:59;27.50;;;17.38;;
42538;SDS011;28173;51.376;6.760;2023-02-15T11:12:43;24.73;;;15.50;;
42538;SDS011;28173;51.376;6.760;2023-02-15T11:20:54;22.98;;;15.23;;
42538;SDS011;28173;51.376;6.760;2023-02-15T11:23:22;28.05;;;16.35;;
42538;SDS011;28173;51.376;6.760;2023-02-15T11:25:54;22.60;;;14.73;;
42538;SDS011;28173;51.376;6.760;2023-02-15T11:28:24;25.83;;;15.73;;
42538;SDS011;28173;51.376;6.760;2023-02-15T11:30:54;21.35;;;15.18;;
42538;SDS011;28173;51.376;6.760;2023-02-15T11:33:22;21.88;;;15.65;;
42538;SDS011;28173;51.376;6.760;2023-02-15T11:36:34;24.48;;;15.73;;
42538;SDS011;28173;51.376;6.760;2023-02-15T11:38:43;26.05;;;15.15;;
42538;SDS011;28173;51.376;6.760;2023-02-15T11:41:14;24.45;;;15.40;;
42538;SDS011;28173;51.376;6.760;2023-02-15T11:46:13;25.00;;;15.32;;
42538;SDS011;28173;51.376;6.760;2023-02-15T11:48:41;25.25;;;15.82;;
42538;SDS011;28173;51.376;6.760;2023-02-15T11:51:09;22.70;;;14.85;;
42538;SDS011;28173;51.376;6.760;2023-02-15T11:53:38;20.65;;;14.63;;
42538;SDS011;28173;51.376;6.760;2023-02-15T11:56:10;23.15;;;15.25;;
42538;SDS011;28173;51.376;6.760;2023-02-15T11:58:46;27.63;;;15.32;;
42538;SDS011;28173;51.376;6.760;2023-02-15T12:01:18;25.92;;;15.30;;
42538;SDS011;28173;51.376;6.760;2023-02-15T12:03:50;26.25;;;15.88;;
42538;SDS011;28173;51.376;6.760;2023-02-15T12:08:46;20.48;;;14.20;;
42538;SDS011;28173;51.376;6.760;2023-02-15T12:11:15;22.73;;;15.23;;
42538;SDS011;28173;51.376;6.760;2023-02-15T12:13:54;26.13;;;14.52;;
42538;SDS011;28173;51.376;6.760;2023-02-15T12:16:21;25.48;;;15.55;;
42538;SDS011;28173;51.376;6.760;2023-02-15T12:18:48;22.02;;;14.70;;
42538;SDS011;28173;51.376;6.760;2023-02-15T12:21:16;31.70;;;15.13;;
42538;SDS011;28173;51.376;6.760;2023-02-15T12:23:51;26.73;;;14.55;;
42538;SDS011;28173;51.376;6.760;2023-02-15T12:26:29;24.15;;;15.63;;
42538;SDS011;28173;51.376;6.760;2023-02-15T12:28:58;29.08;;;15.13;;
42538;SDS011;28173;51.376;6.760;2023-02-15T12:31:27;181.15;;;108.28;;
42538;SDS011;28173;51.376;6.760;2023-02-15T12:33:55;123.47;;;77.65;;
42538;SDS011;28173;51.376;6.760;2023-02-15T12:36:29;33.08;;;19.83;;
42538;SDS011;28173;51.376;6.760;2023-02-15T12:41:45;20.92;;;14.18;;
42538;SDS011;28173;51.376;6.760;2023-02-15T12:44:17;22.25;;;13.30;;
42538;SDS011;28173;51.376;6.760;2023-02-15T12:47:17;19.48;;;12.60;;
42538;SDS011;28173;51.376;6.760;2023-02-15T12:49:34;18.25;;;12.68;;
42538;SDS011;28173;51.376;6.760;2023-02-15T12:52:02;23.40;;;13.98;;
42538;SDS011;28173;51.376;6.760;2023-02-15T12:56:56;21.42;;;14.48;;
42538;SDS011;28173;51.376;6.760;2023-02-15T12:59:23;20.30;;;13.63;;
42538;SDS011;28173;51.376;6.760;2023-02-15T13:01:53;22.33;;;12.82;;
42538;SDS011;28173;51.376;6.760;2023-02-15T13:06:49;19.58;;;13.02;;
42538;SDS011;28173;51.376;6.760;2023-02-15T13:09:19;24.33;;;13.45;;
42538;SDS011;28173;51.376;6.760;2023-02-15T13:11:46;24.67;;;13.38;;
42538;SDS011;28173;51.376;6.760;2023-02-15T13:16:43;16.98;;;12.57;;
42538;SDS011;28173;51.376;6.760;2023-02-15T13:19:12;22.83;;;13.90;;
42538;SDS011;28173;51.376;6.760;2023-02-15T13:21:39;23.13;;;13.60;;
42538;SDS011;28173;51.376;6.760;2023-02-15T13:26:34;20.65;;;13.43;;
42538;SDS011;28173;51.376;6.760;2023-02-15T13:29:23;30.17;;;13.93;;
42538;SDS011;28173;51.376;6.760;2023-02-15T13:31:48;24.23;;;14.63;;
42538;SDS011;28173;51.376;6.760;2023-02-15T13:34:17;24.92;;;14.13;;
42538;SDS011;28173;51.376;6.760;2023-02-15T13:47:10;21.10;;;13.32;;
42538;SDS011;28173;51.376;6.760;2023-02-15T13:52:19;24.90;;;13.35;;
42538;SDS011;28173;51.376;6.760;2023-02-15T14:05:26;21.23;;;13.38;;
42538;SDS011;28173;51.376;6.760;2023-02-15T14:10:27;20.45;;;12.80;;
42538;SDS011;28173;51.376;6.760;2023-02-15T14:13:05;27.73;;;13.88;;
42538;SDS011;28173;51.376;6.760;2023-02-15T14:23:32;20.52;;;13.50;;
42538;SDS011;28173;51.376;6.760;2023-02-15T14:28:50;20.73;;;13.00;;
42538;SDS011;28173;51.376;6.760;2023-02-15T14:31:23;23.80;;;13.20;;
42538;SDS011;28173;51.376;6.760;2023-02-15T14:33:54;28.05;;;13.55;;
42538;SDS011;28173;51.376;6.760;2023-02-15T14:36:21;22.65;;;13.43;;
42538;SDS011;28173;51.376;6.760;2023-02-15T14:41:56;25.53;;;12.57;;
42538;SDS011;28173;51.376;6.760;2023-02-15T14:44:38;30.02;;;13.48;;
42538;SDS011;28173;51.376;6.760;2023-02-15T14:47:10;22.55;;;13.73;;
42538;SDS011;28173;51.376;6.760;2023-02-15T14:49:39;25.48;;;14.18;;
42538;SDS011;28173;51.376;6.760;2023-02-15T14:52:06;24.25;;;13.25;;
42538;SDS011;28173;51.376;6.760;2023-02-15T14:59:45;22.20;;;13.55;;
42538;SDS011;28173;51.376;6.760;2023-02-15T15:02:16;21.45;;;12.75;;
42538;SDS011;28173;51.376;6.760;2023-02-15T15:09:43;25.17;;;13.30;;
42538;SDS011;28173;51.376;6.760;2023-02-15T15:12:35;21.42;;;13.73;;
42538;SDS011;28173;51.376;6.760;2023-02-15T15:15:02;24.27;;;13.75;;
42538;SDS011;28173;51.376;6.760;2023-02-15T15:19:58;23.02;;;13.95;;
42538;SDS011;28173;51.376;6.760;2023-02-15T15:22:26;19.67;;;13.45;;
42538;SDS011;28173;51.376;6.760;2023-02-15T15:25:00;20.48;;;13.02;;
42538;SDS011;28173;51.376;6.760;2023-02-15T15:27:40;24.38;;;13.90;;
42538;SDS011;28173;51.376;6.760;2023-02-15T15:32:46;23.95;;;13.52;;
42538;SDS011;28173;51.376;6.760;2023-02-15T15:35:22;21.97;;;14.37;;
42538;SDS011;28173;51.376;6.760;2023-02-15T15:42:50;24.48;;;13.50;;
42538;SDS011;28173;51.376;6.760;2023-02-15T15:50:51;29.58;;;13.55;;
42538;SDS011;28173;51.376;6.760;2023-02-15T15:53:20;27.00;;;13.57;;
42538;SDS011;28173;51.376;6.760;2023-02-15T15:55:49;25.38;;;14.15;;
42538;SDS011;28173;51.376;6.760;2023-02-15T15:58:17;21.35;;;12.68;;
42538;SDS011;28173;51.376;6.760;2023-02-15T16:00:48;23.25;;;13.70;;
42538;SDS011;28173;51.376;6.760;2023-02-15T16:03:20;24.58;;;13.23;;
42538;SDS011;28173;51.376;6.760;2023-02-15T16:05:46;27.73;;;13.43;;
42538;SDS011;28173;51.376;6.760;2023-02-15T16:08:14;28.90;;;13.35;;
42538;SDS011;28173;51.376;6.760;2023-02-15T16:10:51;23.02;;;13.70;;
42538;SDS011;28173;51.376;6.760;2023-02-15T16:13:18;24.83;;;13.93;;
42538;SDS011;28173;51.376;6.760;2023-02-15T16:15:47;22.67;;;13.13;;
42538;SDS011;28173;51.376;6.760;2023-02-15T16:18:16;19.38;;;12.90;;
42538;SDS011;28173;51.376;6.760;2023-02-15T16:20:50;24.48;;;13.88;;
42538;SDS011;28173;51.376;6.760;2023-02-15T16:28:50;28.27;;;14.70;;
42538;SDS011;28173;51.376;6.760;2023-02-15T16:31:21;24.35;;;13.68;;
42538;SDS011;28173;51.376;6.760;2023-02-15T16:33:54;24.88;;;13.98;;
42538;SDS011;28173;51.376;6.760;2023-02-15T16:36:24;25.35;;;14.32;;
42538;SDS011;28173;51.376;6.760;2023-02-15T16:41:21;22.10;;;14.90;;
42538;SDS011;28173;51.376;6.760;2023-02-15T16:43:49;25.15;;;15.27;;
42538;SDS011;28173;51.376;6.760;2023-02-15T16:46:26;23.83;;;14.50;;
42538;SDS011;28173;51.376;6.760;2023-02-15T16:48:54;22.42;;;14.27;;
42538;SDS011;28173;51.376;6.760;2023-02-15T16:51:26;25.15;;;14.18;;
42538;SDS011;28173;51.376;6.760;2023-02-15T16:53:54;23.35;;;14.68;;
42538;SDS011;28173;51.376;6.760;2023-02-15T16:56:25;25.25;;;13.80;;
42538;SDS011;28173;51.376;6.760;2023-02-15T16:58:53;24.40;;;14.75;;
42538;SDS011;28173;51.376;6.760;2023-02-15T17:01:21;20.60;;;13.13;;
42538;SDS011;28173;51.376;6.760;2023-02-15T17:03:51;23.85;;;14.75;;
42538;SDS011;28173;51.376;6.760;2023-02-15T17:06:19;25.13;;;15.38;;
42538;SDS011;28173;51.376;6.760;2023-02-15T17:08:47;28.75;;;15.60;;
42538;SDS011;28173;51.376;6.760;2023-02-15T17:14:10;25.33;;;15.13;;
42538;SDS011;28173;51.376;6.760;2023-02-15T17:16:29;25.13;;;14.30;;
42538;SDS011;28173;51.376;6.760;2023-02-15T17:18:59;20.73;;;14.32;;
42538;SDS011;28173;51.376;6.760;2023-02-15T17:21:32;28.10;;;16.20;;
42538;SDS011;28173;51.376;6.760;2023-02-15T17:24:00;32.30;;;20.20;;
42538;SDS011;28173;51.376;6.760;2023-02-15T17:26:31;25.00;;;18.17;;
42538;SDS011;28173;51.376;6.760;2023-02-15T17:28:59;23.60;;;17.35;;
42538;SDS011;28173;51.376;6.760;2023-02-15T17:31:31;26.92;;;17.10;;
42538;SDS011;28173;51.376;6.760;2023-02-15T17:33:59;25.02;;;15.60;;
42538;SDS011;28173;51.376;6.760;2023-02-15T17:36:27;25.90;;;15.45;;
42538;SDS011;28173;51.376;6.760;2023-02-15T17:41:25;23.88;;;15.20;;
42538;SDS011;28173;51.376;6.760;2023-02-15T17:43:52;22.88;;;15.25;;
42538;SDS011;28173;51.376;6.760;2023-02-15T17:46:19;23.00;;;14.73;;